sensor_id;sensor_type;location;lat;lon;timestamp;P1;durP1;ratioP1;P2;durP2;ratioP2
38581;SDS011;24349;53.720;10.014;2023-04-15T00:01:25;9.10;;;5.80;;
38581;SDS011;24349;53.720;10.014;2023-04-15T00:03:51;8.18;;;5.15;;
38581;SDS011;24349;53.720;10.014;2023-04-15T00:06:18;8.57;;;5.25;;
38581;SDS011;24349;53.720;10.014;2023-04-15T00:08:44;7.38;;;5.25;;
38581;SDS011;24349;53.720;10.014;2023-04-15T00:11:10;8.45;;;5.93;;
38581;SDS011;24349;53.720;10.014;2023-04-15T00:13:36;7.80;;;4.68;;
38581;SDS011;24349;53.720;10.014;2023-04-15T00:16:03;12.45;;;6.57;;
38581;SDS011;24349;53.720;10.014;2023-04-15T00:18:30;8.43;;;5.93;;
38581;SDS011;24349;53.720;10.014;2023-04-15T00:20:56;8.82;;;6.07;;
38581;SDS011;24349;53.720;10.014;2023-04-15T00:23:22;7.70;;;5.60;;
38581;SDS011;24349;53.720;10.014;2023-04-15T00:25:48;9.27;;;6.10;;
38581;SDS011;24349;53.720;10.014;2023-04-15T00:28:14;8.27;;;6.00;;
38581;SDS011;24349;53.720;10.014;2023-04-15T00:30:40;9.45;;;6.53;;
38581;SDS011;24349;53.720;10.014;2023-04-15T00:33:06;8.27;;;5.85;;
38581;SDS011;24349;53.720;10.014;2023-04-15T00:35:32;9.93;;;6.82;;
38581;SDS011;24349;53.720;10.014;2023-04-15T00:37:58;11.55;;;7.80;;
38581;SDS011;24349;53.720;10.014;2023-04-15T00:40:24;9.73;;;7.07;;
38581;SDS011;24349;53.720;10.014;2023-04-15T00:42:50;9.60;;;6.50;;
38581;SDS011;24349;53.720;10.014;2023-04-15T00:45:16;8.93;;;6.07;;
38581;SDS011;24349;53.720;10.014;2023-04-15T00:47:42;9.88;;;6.78;;
38581;SDS011;24349;53.720;10.014;2023-04-15T00:50:09;9.75;;;7.13;;
38581;SDS011;24349;53.720;10.014;2023-04-15T00:52:36;11.80;;;8.05;;
38581;SDS011;24349;53.720;10.014;2023-04-15T00:55:03;10.23;;;6.88;;
38581;SDS011;24349;53.720;10.014;2023-04-15T00:57:29;10.50;;;7.57;;
38581;SDS011;24349;53.720;10.014;2023-04-15T00:59:55;9.23;;;5.95;;
38581;SDS011;24349;53.720;10.014;2023-04-15T01:02:22;8.50;;;6.20;;
38581;SDS011;24349;53.720;10.014;2023-04-15T01:04:48;10.80;;;7.47;;
38581;SDS011;24349;53.720;10.014;2023-04-15T01:07:14;9.63;;;6.22;;
38581;SDS011;24349;53.720;10.014;2023-04-15T01:09:40;10.85;;;7.60;;
38581;SDS011;24349;53.720;10.014;2023-04-15T01:12:06;12.90;;;8.32;;
38581;SDS011;24349;53.720;10.014;2023-04-15T01:14:34;9.50;;;6.70;;
38581;SDS011;24349;53.720;10.014;2023-04-15T01:17:00;9.68;;;6.57;;
38581;SDS011;24349;53.720;10.014;2023-04-15T01:19:26;8.27;;;5.95;;
38581;SDS011;24349;53.720;10.014;2023-04-15T01:21:52;11.38;;;7.28;;
38581;SDS011;24349;53.720;10.014;2023-04-15T01:24:18;10.05;;;6.60;;
38581;SDS011;24349;53.720;10.014;2023-04-15T01:26:44;9.10;;;5.93;;
38581;SDS011;24349;53.720;10.014;2023-04-15T01:29:10;10.27;;;6.65;;
38581;SDS011;24349;53.720;10.014;2023-04-15T01:31:37;8.95;;;5.88;;
38581;SDS011;24349;53.720;10.014;2023-04-15T01:34:02;10.25;;;6.35;;
38581;SDS011;24349;53.720;10.014;2023-04-15T01:36:28;9.60;;;6.72;;
38581;SDS011;24349;53.720;10.014;2023-04-15T01:38:55;9.68;;;6.65;;
38581;SDS011;24349;53.720;10.014;2023-04-15T01:41:25;10.43;;;7.32;;
38581;SDS011;24349;53.720;10.014;2023-04-15T01:43:51;10.32;;;6.88;;
38581;SDS011;24349;53.720;10.014;2023-04-15T01:46:17;11.20;;;8.00;;
38581;SDS011;24349;53.720;10.014;2023-04-15T01:48:43;11.10;;;6.93;;
38581;SDS011;24349;53.720;10.014;2023-04-15T01:51:08;9.75;;;6.47;;
38581;SDS011;24349;53.720;10.014;2023-04-15T01:53:34;9.27;;;6.20;;
38581;SDS011;24349;53.720;10.014;2023-04-15T01:55:59;11.27;;;7.60;;
38581;SDS011;24349;53.720;10.014;2023-04-15T01:58:25;8.88;;;6.15;;
38581;SDS011;24349;53.720;10.014;2023-04-15T02:00:51;10.40;;;7.22;;
38581;SDS011;24349;53.720;10.014;2023-04-15T02:03:17;10.77;;;7.05;;
38581;SDS011;24349;53.720;10.014;2023-04-15T02:05:43;10.43;;;7.72;;
38581;SDS011;24349;53.720;10.014;2023-04-15T02:08:08;12.70;;;8.07;;
38581;SDS011;24349;53.720;10.014;2023-04-15T02:10:34;10.88;;;7.03;;
38581;SDS011;24349;53.720;10.014;2023-04-15T02:12:59;12.93;;;8.80;;
38581;SDS011;24349;53.720;10.014;2023-04-15T02:15:25;14.80;;;9.30;;
38581;SDS011;24349;53.720;10.014;2023-04-15T02:17:51;13.48;;;8.30;;
38581;SDS011;24349;53.720;10.014;2023-04-15T02:20:19;12.10;;;7.68;;
38581;SDS011;24349;53.720;10.014;2023-04-15T02:22:45;16.75;;;10.60;;
38581;SDS011;24349;53.720;10.014;2023-04-15T02:25:12;15.02;;;9.45;;
38581;SDS011;24349;53.720;10.014;2023-04-15T02:27:38;13.50;;;9.38;;
38581;SDS011;24349;53.720;10.014;2023-04-15T02:30:04;13.70;;;9.43;;
38581;SDS011;24349;53.720;10.014;2023-04-15T02:32:31;13.50;;;9.20;;
38581;SDS011;24349;53.720;10.014;2023-04-15T02:35:00;13.27;;;8.63;;
38581;SDS011;24349;53.720;10.014;2023-04-15T02:37:28;18.27;;;10.02;;
38581;SDS011;24349;53.720;10.014;2023-04-15T02:39:55;13.27;;;8.60;;
38581;SDS011;24349;53.720;10.014;2023-04-15T02:42:20;13.77;;;8.63;;
38581;SDS011;24349;53.720;10.014;2023-04-15T02:44:46;17.25;;;10.55;;
38581;SDS011;24349;53.720;10.014;2023-04-15T02:47:11;15.52;;;10.07;;
38581;SDS011;24349;53.720;10.014;2023-04-15T02:49:38;18.27;;;10.95;;
38581;SDS011;24349;53.720;10.014;2023-04-15T02:52:04;18.17;;;11.20;;
38581;SDS011;24349;53.720;10.014;2023-04-15T02:54:31;14.50;;;9.35;;
38581;SDS011;24349;53.720;10.014;2023-04-15T02:56:58;16.60;;;10.38;;
38581;SDS011;24349;53.720;10.014;2023-04-15T02:59:24;17.95;;;11.55;;
38581;SDS011;24349;53.720;10.014;2023-04-15T03:01:49;17.98;;;11.25;;
38581;SDS011;24349;53.720;10.014;2023-04-15T03:04:15;19.40;;;11.82;;
38581;SDS011;24349;53.720;10.014;2023-04-15T03:06:41;18.20;;;10.80;;
38581;SDS011;24349;53.720;10.014;2023-04-15T03:09:06;18.55;;;11.00;;
38581;SDS011;24349;53.720;10.014;2023-04-15T03:11:32;16.15;;;10.70;;
38581;SDS011;24349;53.720;10.014;2023-04-15T03:13:59;15.07;;;9.88;;
38581;SDS011;24349;53.720;10.014;2023-04-15T03:16:24;15.38;;;10.10;;
38581;SDS011;24349;53.720;10.014;2023-04-15T03:18:50;15.05;;;10.25;;
38581;SDS011;24349;53.720;10.014;2023-04-15T03:21:16;18.75;;;11.80;;
38581;SDS011;24349;53.720;10.014;2023-04-15T03:23:42;21.90;;;13.05;;
38581;SDS011;24349;53.720;10.014;2023-04-15T03:26:07;23.92;;;14.77;;
38581;SDS011;24349;53.720;10.014;2023-04-15T03:28:33;21.90;;;13.82;;
38581;SDS011;24349;53.720;10.014;2023-04-15T03:30:58;22.10;;;13.30;;
38581;SDS011;24349;53.720;10.014;2023-04-15T03:33:24;23.90;;;14.27;;
38581;SDS011;24349;53.720;10.014;2023-04-15T03:35:50;30.63;;;16.45;;
38581;SDS011;24349;53.720;10.014;2023-04-15T03:38:16;26.60;;;15.18;;
38581;SDS011;24349;53.720;10.014;2023-04-15T03:40:42;28.05;;;15.95;;
38581;SDS011;24349;53.720;10.014;2023-04-15T03:43:08;28.65;;;16.77;;
38581;SDS011;24349;53.720;10.014;2023-04-15T03:45:34;36.33;;;20.20;;
38581;SDS011;24349;53.720;10.014;2023-04-15T03:47:59;27.92;;;16.45;;
38581;SDS011;24349;53.720;10.014;2023-04-15T03:50:25;24.10;;;15.93;;
38581;SDS011;24349;53.720;10.014;2023-04-15T03:52:51;28.58;;;16.33;;
38581;SDS011;24349;53.720;10.014;2023-04-15T03:55:17;20.90;;;14.20;;
38581;SDS011;24349;53.720;10.014;2023-04-15T03:57:43;25.63;;;16.15;;
38581;SDS011;24349;53.720;10.014;2023-04-15T04:00:09;33.40;;;20.33;;
38581;SDS011;24349;53.720;10.014;2023-04-15T04:02:35;52.47;;;25.23;;
38581;SDS011;24349;53.720;10.014;2023-04-15T04:05:01;38.53;;;19.42;;
38581;SDS011;24349;53.720;10.014;2023-04-15T04:07:26;32.90;;;20.13;;
38581;SDS011;24349;53.720;10.014;2023-04-15T04:09:52;34.65;;;19.73;;
38581;SDS011;24349;53.720;10.014;2023-04-15T04:12:18;28.20;;;18.10;;
38581;SDS011;24349;53.720;10.014;2023-04-15T04:14:43;28.45;;;17.77;;
38581;SDS011;24349;53.720;10.014;2023-04-15T04:17:09;34.90;;;20.95;;
38581;SDS011;24349;53.720;10.014;2023-04-15T04:19:35;37.00;;;21.40;;
38581;SDS011;24349;53.720;10.014;2023-04-15T04:22:01;27.00;;;17.88;;
38581;SDS011;24349;53.720;10.014;2023-04-15T04:24:26;30.45;;;19.38;;
38581;SDS011;24349;53.720;10.014;2023-04-15T04:26:52;45.17;;;23.60;;
38581;SDS011;24349;53.720;10.014;2023-04-15T04:29:18;46.85;;;23.75;;
38581;SDS011;24349;53.720;10.014;2023-04-15T04:31:43;71.93;;;29.75;;
38581;SDS011;24349;53.720;10.014;2023-04-15T04:34:09;44.55;;;24.13;;
38581;SDS011;24349;53.720;10.014;2023-04-15T04:36:34;48.67;;;24.95;;
38581;SDS011;24349;53.720;10.014;2023-04-15T04:39:00;33.45;;;21.27;;
38581;SDS011;24349;53.720;10.014;2023-04-15T04:41:26;31.70;;;19.67;;
38581;SDS011;24349;53.720;10.014;2023-04-15T04:43:51;46.20;;;21.67;;
38581;SDS011;24349;53.720;10.014;2023-04-15T04:46:17;36.55;;;21.35;;
38581;SDS011;24349;53.720;10.014;2023-04-15T04:48:42;41.92;;;23.35;;
38581;SDS011;24349;53.720;10.014;2023-04-15T04:51:08;48.30;;;27.92;;
38581;SDS011;24349;53.720;10.014;2023-04-15T04:53:34;48.70;;;26.10;;
38581;SDS011;24349;53.720;10.014;2023-04-15T04:56:01;50.33;;;25.67;;
38581;SDS011;24349;53.720;10.014;2023-04-15T04:58:27;51.13;;;26.67;;
38581;SDS011;24349;53.720;10.014;2023-04-15T05:00:53;49.45;;;28.13;;
38581;SDS011;24349;53.720;10.014;2023-04-15T05:03:18;70.10;;;30.85;;
38581;SDS011;24349;53.720;10.014;2023-04-15T05:05:44;51.28;;;27.02;;
38581;SDS011;24349;53.720;10.014;2023-04-15T05:08:09;49.67;;;24.92;;
38581;SDS011;24349;53.720;10.014;2023-04-15T05:10:35;39.30;;;24.40;;
38581;SDS011;24349;53.720;10.014;2023-04-15T05:13:01;53.53;;;29.67;;
38581;SDS011;24349;53.720;10.014;2023-04-15T05:15:27;43.10;;;23.90;;
38581;SDS011;24349;53.720;10.014;2023-04-15T05:17:52;46.60;;;27.63;;
38581;SDS011;24349;53.720;10.014;2023-04-15T05:20:18;44.95;;;25.20;;
38581;SDS011;24349;53.720;10.014;2023-04-15T05:22:44;49.05;;;26.77;;
38581;SDS011;24349;53.720;10.014;2023-04-15T05:25:09;45.00;;;26.45;;
38581;SDS011;24349;53.720;10.014;2023-04-15T05:27:35;63.35;;;31.05;;
38581;SDS011;24349;53.720;10.014;2023-04-15T05:30:00;37.65;;;23.80;;
38581;SDS011;24349;53.720;10.014;2023-04-15T05:32:26;42.67;;;26.83;;
38581;SDS011;24349;53.720;10.014;2023-04-15T05:34:52;65.97;;;31.13;;
38581;SDS011;24349;53.720;10.014;2023-04-15T05:37:17;34.58;;;23.52;;
38581;SDS011;24349;53.720;10.014;2023-04-15T05:39:45;47.33;;;27.02;;
38581;SDS011;24349;53.720;10.014;2023-04-15T05:42:11;50.22;;;28.27;;
38581;SDS011;24349;53.720;10.014;2023-04-15T05:44:36;50.15;;;30.00;;
38581;SDS011;24349;53.720;10.014;2023-04-15T05:47:02;46.38;;;27.55;;
38581;SDS011;24349;53.720;10.014;2023-04-15T05:49:28;42.42;;;26.52;;
38581;SDS011;24349;53.720;10.014;2023-04-15T05:51:53;46.13;;;27.90;;
38581;SDS011;24349;53.720;10.014;2023-04-15T05:54:19;55.45;;;31.75;;
38581;SDS011;24349;53.720;10.014;2023-04-15T05:56:47;53.20;;;30.23;;
38581;SDS011;24349;53.720;10.014;2023-04-15T05:59:12;58.58;;;31.67;;
38581;SDS011;24349;53.720;10.014;2023-04-15T06:01:38;52.60;;;30.65;;
38581;SDS011;24349;53.720;10.014;2023-04-15T06:04:04;67.93;;;34.88;;
38581;SDS011;24349;53.720;10.014;2023-04-15T06:06:30;71.80;;;36.53;;
38581;SDS011;24349;53.720;10.014;2023-04-15T06:08:56;49.83;;;28.60;;
38581;SDS011;24349;53.720;10.014;2023-04-15T06:11:22;50.45;;;29.73;;
38581;SDS011;24349;53.720;10.014;2023-04-15T06:13:48;58.30;;;32.97;;
38581;SDS011;24349;53.720;10.014;2023-04-15T06:16:13;51.38;;;29.88;;
38581;SDS011;24349;53.720;10.014;2023-04-15T06:18:39;55.58;;;31.38;;
38581;SDS011;24349;53.720;10.014;2023-04-15T06:21:05;58.58;;;35.25;;
38581;SDS011;24349;53.720;10.014;2023-04-15T06:23:33;59.03;;;36.45;;
38581;SDS011;24349;53.720;10.014;2023-04-15T06:25:59;62.85;;;37.65;;
38581;SDS011;24349;53.720;10.014;2023-04-15T06:28:25;45.22;;;30.35;;
38581;SDS011;24349;53.720;10.014;2023-04-15T06:30:51;66.00;;;37.35;;
38581;SDS011;24349;53.720;10.014;2023-04-15T06:33:17;63.40;;;38.67;;
38581;SDS011;24349;53.720;10.014;2023-04-15T06:35:43;66.00;;;39.05;;
38581;SDS011;24349;53.720;10.014;2023-04-15T06:38:09;56.75;;;36.67;;
38581;SDS011;24349;53.720;10.014;2023-04-15T06:40:35;47.30;;;32.40;;
38581;SDS011;24349;53.720;10.014;2023-04-15T06:43:01;64.70;;;36.95;;
38581;SDS011;24349;53.720;10.014;2023-04-15T06:45:28;62.22;;;38.72;;
38581;SDS011;24349;53.720;10.014;2023-04-15T06:47:55;49.33;;;32.55;;
38581;SDS011;24349;53.720;10.014;2023-04-15T06:50:21;56.97;;;36.03;;
38581;SDS011;24349;53.720;10.014;2023-04-15T06:52:47;59.80;;;37.60;;
38581;SDS011;24349;53.720;10.014;2023-04-15T06:55:12;55.20;;;34.00;;
38581;SDS011;24349;53.720;10.014;2023-04-15T06:57:38;58.03;;;35.30;;
38581;SDS011;24349;53.720;10.014;2023-04-15T07:00:04;48.92;;;31.60;;
38581;SDS011;24349;53.720;10.014;2023-04-15T07:02:31;77.45;;;43.75;;
38581;SDS011;24349;53.720;10.014;2023-04-15T07:04:57;59.90;;;37.65;;
38581;SDS011;24349;53.720;10.014;2023-04-15T07:07:23;47.97;;;32.03;;
38581;SDS011;24349;53.720;10.014;2023-04-15T07:09:49;73.15;;;41.60;;
38581;SDS011;24349;53.720;10.014;2023-04-15T07:12:16;58.10;;;34.97;;
38581;SDS011;24349;53.720;10.014;2023-04-15T07:14:42;86.20;;;45.22;;
38581;SDS011;24349;53.720;10.014;2023-04-15T07:17:07;73.70;;;42.28;;
38581;SDS011;24349;53.720;10.014;2023-04-15T07:19:33;74.80;;;43.63;;
38581;SDS011;24349;53.720;10.014;2023-04-15T07:21:59;61.08;;;38.05;;
38581;SDS011;24349;53.720;10.014;2023-04-15T07:24:25;67.32;;;39.63;;
38581;SDS011;24349;53.720;10.014;2023-04-15T07:26:54;55.75;;;34.53;;
38581;SDS011;24349;53.720;10.014;2023-04-15T07:29:23;74.27;;;43.03;;
38581;SDS011;24349;53.720;10.014;2023-04-15T07:31:49;76.22;;;43.67;;
38581;SDS011;24349;53.720;10.014;2023-04-15T07:34:14;61.42;;;37.92;;
38581;SDS011;24349;53.720;10.014;2023-04-15T07:36:40;70.03;;;40.72;;
38581;SDS011;24349;53.720;10.014;2023-04-15T07:39:07;62.05;;;38.42;;
38581;SDS011;24349;53.720;10.014;2023-04-15T07:41:32;50.17;;;34.08;;
38581;SDS011;24349;53.720;10.014;2023-04-15T07:43:58;60.97;;;37.88;;
38581;SDS011;24349;53.720;10.014;2023-04-15T07:46:24;64.78;;;40.10;;
38581;SDS011;24349;53.720;10.014;2023-04-15T07:48:51;57.15;;;37.75;;
38581;SDS011;24349;53.720;10.014;2023-04-15T07:51:17;54.65;;;35.15;;
38581;SDS011;24349;53.720;10.014;2023-04-15T07:53:43;53.97;;;36.08;;
38581;SDS011;24349;53.720;10.014;2023-04-15T07:56:09;58.80;;;39.05;;
38581;SDS011;24349;53.720;10.014;2023-04-15T07:58:35;52.78;;;35.55;;
38581;SDS011;24349;53.720;10.014;2023-04-15T08:01:03;66.30;;;42.45;;
38581;SDS011;24349;53.720;10.014;2023-04-15T08:03:29;58.40;;;37.90;;
38581;SDS011;24349;53.720;10.014;2023-04-15T08:05:55;66.63;;;41.67;;
38581;SDS011;24349;53.720;10.014;2023-04-15T08:08:21;62.85;;;39.60;;
38581;SDS011;24349;53.720;10.014;2023-04-15T08:10:47;58.88;;;37.08;;
38581;SDS011;24349;53.720;10.014;2023-04-15T08:13:13;48.35;;;33.53;;
38581;SDS011;24349;53.720;10.014;2023-04-15T08:15:39;60.53;;;38.15;;
38581;SDS011;24349;53.720;10.014;2023-04-15T08:18:05;45.72;;;32.58;;
38581;SDS011;24349;53.720;10.014;2023-04-15T08:20:31;53.50;;;35.58;;
38581;SDS011;24349;53.720;10.014;2023-04-15T08:22:57;51.75;;;34.17;;
38581;SDS011;24349;53.720;10.014;2023-04-15T08:25:22;48.70;;;32.70;;
38581;SDS011;24349;53.720;10.014;2023-04-15T08:27:48;46.38;;;33.35;;
38581;SDS011;24349;53.720;10.014;2023-04-15T08:30:14;43.97;;;30.67;;
38581;SDS011;24349;53.720;10.014;2023-04-15T08:32:41;51.70;;;34.20;;
38581;SDS011;24349;53.720;10.014;2023-04-15T08:35:06;52.78;;;37.33;;
38581;SDS011;24349;53.720;10.014;2023-04-15T08:37:33;44.50;;;31.77;;
38581;SDS011;24349;53.720;10.014;2023-04-15T08:39:58;51.67;;;36.15;;
38581;SDS011;24349;53.720;10.014;2023-04-15T08:42:29;43.88;;;31.30;;
38581;SDS011;24349;53.720;10.014;2023-04-15T08:45:00;42.78;;;30.73;;
38581;SDS011;24349;53.720;10.014;2023-04-15T08:47:29;49.20;;;34.70;;
38581;SDS011;24349;53.720;10.014;2023-04-15T08:49:57;54.75;;;36.75;;
38581;SDS011;24349;53.720;10.014;2023-04-15T08:52:24;48.92;;;33.20;;
38581;SDS011;24349;53.720;10.014;2023-04-15T08:54:51;46.92;;;31.67;;
38581;SDS011;24349;53.720;10.014;2023-04-15T08:57:22;44.28;;;30.45;;
38581;SDS011;24349;53.720;10.014;2023-04-15T08:59:53;45.42;;;31.55;;
38581;SDS011;24349;53.720;10.014;2023-04-15T09:02:21;49.35;;;34.22;;
38581;SDS011;24349;53.720;10.014;2023-04-15T09:04:49;49.92;;;34.40;;
38581;SDS011;24349;53.720;10.014;2023-04-15T09:07:14;45.25;;;31.73;;
38581;SDS011;24349;53.720;10.014;2023-04-15T09:09:40;50.40;;;34.35;;
38581;SDS011;24349;53.720;10.014;2023-04-15T09:12:06;45.85;;;32.55;;
38581;SDS011;24349;53.720;10.014;2023-04-15T09:14:32;47.60;;;31.77;;
38581;SDS011;24349;53.720;10.014;2023-04-15T09:16:59;47.63;;;35.28;;
38581;SDS011;24349;53.720;10.014;2023-04-15T09:19:28;47.40;;;31.85;;
38581;SDS011;24349;53.720;10.014;2023-04-15T09:21:54;50.33;;;34.50;;
38581;SDS011;24349;53.720;10.014;2023-04-15T09:24:21;43.83;;;30.85;;
38581;SDS011;24349;53.720;10.014;2023-04-15T09:26:47;43.00;;;30.63;;
38581;SDS011;24349;53.720;10.014;2023-04-15T09:29:18;40.42;;;30.42;;
38581;SDS011;24349;53.720;10.014;2023-04-15T09:31:44;43.78;;;30.95;;
38581;SDS011;24349;53.720;10.014;2023-04-15T09:34:10;41.83;;;30.60;;
38581;SDS011;24349;53.720;10.014;2023-04-15T09:39:11;38.72;;;30.20;;
38581;SDS011;24349;53.720;10.014;2023-04-15T09:41:37;37.17;;;26.83;;
38581;SDS011;24349;53.720;10.014;2023-04-15T09:44:04;41.00;;;30.15;;
38581;SDS011;24349;53.720;10.014;2023-04-15T09:46:40;39.00;;;29.33;;
38581;SDS011;24349;53.720;10.014;2023-04-15T09:49:07;35.45;;;26.35;;
38581;SDS011;24349;53.720;10.014;2023-04-15T09:51:34;35.40;;;25.08;;
38581;SDS011;24349;53.720;10.014;2023-04-15T09:54:00;35.28;;;27.15;;
38581;SDS011;24349;53.720;10.014;2023-04-15T09:56:31;35.88;;;28.40;;
38581;SDS011;24349;53.720;10.014;2023-04-15T09:59:01;34.08;;;26.17;;
38581;SDS011;24349;53.720;10.014;2023-04-15T10:01:27;31.17;;;25.02;;
38581;SDS011;24349;53.720;10.014;2023-04-15T10:03:53;33.38;;;25.83;;
38581;SDS011;24349;53.720;10.014;2023-04-15T10:06:22;30.92;;;22.77;;
38581;SDS011;24349;53.720;10.014;2023-04-15T10:08:50;32.45;;;25.63;;
38581;SDS011;24349;53.720;10.014;2023-04-15T10:11:16;30.27;;;24.67;;
38581;SDS011;24349;53.720;10.014;2023-04-15T10:13:43;28.20;;;23.58;;
38581;SDS011;24349;53.720;10.014;2023-04-15T10:16:11;26.73;;;22.65;;
38581;SDS011;24349;53.720;10.014;2023-04-15T10:18:43;28.58;;;22.50;;
38581;SDS011;24349;53.720;10.014;2023-04-15T10:21:10;25.08;;;20.02;;
38581;SDS011;24349;53.720;10.014;2023-04-15T10:23:42;24.02;;;20.23;;
38581;SDS011;24349;53.720;10.014;2023-04-15T10:26:09;26.25;;;20.02;;
38581;SDS011;24349;53.720;10.014;2023-04-15T10:28:37;23.10;;;20.20;;
38581;SDS011;24349;53.720;10.014;2023-04-15T10:31:03;23.45;;;19.10;;
38581;SDS011;24349;53.720;10.014;2023-04-15T10:33:29;21.27;;;17.77;;
38581;SDS011;24349;53.720;10.014;2023-04-15T10:35:56;20.27;;;16.17;;
38581;SDS011;24349;53.720;10.014;2023-04-15T10:38:32;19.77;;;16.30;;
38581;SDS011;24349;53.720;10.014;2023-04-15T10:41:14;20.27;;;17.42;;
38581;SDS011;24349;53.720;10.014;2023-04-15T10:46:41;19.00;;;15.90;;
38581;SDS011;24349;53.720;10.014;2023-04-15T10:49:12;18.30;;;15.05;;
38581;SDS011;24349;53.720;10.014;2023-04-15T10:51:40;17.73;;;14.93;;
38581;SDS011;24349;53.720;10.014;2023-04-15T10:56:40;16.48;;;14.55;;
38581;SDS011;24349;53.720;10.014;2023-04-15T10:59:08;16.75;;;13.68;;
38581;SDS011;24349;53.720;10.014;2023-04-15T11:01:49;17.23;;;13.05;;
38581;SDS011;24349;53.720;10.014;2023-04-15T11:07:40;15.63;;;12.80;;
38581;SDS011;24349;53.720;10.014;2023-04-15T11:12:43;14.30;;;11.82;;
38581;SDS011;24349;53.720;10.014;2023-04-15T11:18:41;14.48;;;11.68;;
38581;SDS011;24349;53.720;10.014;2023-04-15T11:20:54;16.10;;;11.35;;
38581;SDS011;24349;53.720;10.014;2023-04-15T11:23:34;11.45;;;9.13;;
38581;SDS011;24349;53.720;10.014;2023-04-15T11:26:08;10.60;;;9.02;;
38581;SDS011;24349;53.720;10.014;2023-04-15T11:28:36;11.98;;;9.30;;
38581;SDS011;24349;53.720;10.014;2023-04-15T11:31:13;10.85;;;9.25;;
38581;SDS011;24349;53.720;10.014;2023-04-15T11:33:52;13.43;;;10.65;;
38581;SDS011;24349;53.720;10.014;2023-04-15T11:38:52;10.52;;;9.23;;
38581;SDS011;24349;53.720;10.014;2023-04-15T11:41:21;12.70;;;10.25;;
38581;SDS011;24349;53.720;10.014;2023-04-15T11:43:47;12.05;;;9.90;;
38581;SDS011;24349;53.720;10.014;2023-04-15T11:46:14;12.68;;;10.63;;
38581;SDS011;24349;53.720;10.014;2023-04-15T11:48:43;10.95;;;9.25;;
38581;SDS011;24349;53.720;10.014;2023-04-15T11:51:11;12.05;;;9.70;;
38581;SDS011;24349;53.720;10.014;2023-04-15T11:53:38;11.88;;;9.55;;
38581;SDS011;24349;53.720;10.014;2023-04-15T11:56:24;13.57;;;9.15;;
38581;SDS011;24349;53.720;10.014;2023-04-15T11:58:51;15.15;;;10.98;;
38581;SDS011;24349;53.720;10.014;2023-04-15T12:01:18;11.30;;;9.60;;
38581;SDS011;24349;53.720;10.014;2023-04-15T12:03:44;12.55;;;9.68;;
38581;SDS011;24349;53.720;10.014;2023-04-15T12:08:48;12.60;;;10.02;;
38581;SDS011;24349;53.720;10.014;2023-04-15T12:11:29;11.73;;;9.25;;
38581;SDS011;24349;53.720;10.014;2023-04-15T12:13:56;12.57;;;9.30;;
38581;SDS011;24349;53.720;10.014;2023-04-15T12:16:59;12.60;;;9.70;;
38581;SDS011;24349;53.720;10.014;2023-04-15T12:19:27;12.50;;;9.75;;
38581;SDS011;24349;53.720;10.014;2023-04-15T12:22:00;11.85;;;9.48;;
38581;SDS011;24349;53.720;10.014;2023-04-15T12:24:30;11.23;;;9.50;;
38581;SDS011;24349;53.720;10.014;2023-04-15T12:27:03;13.40;;;10.03;;
38581;SDS011;24349;53.720;10.014;2023-04-15T12:29:31;14.00;;;10.65;;
38581;SDS011;24349;53.720;10.014;2023-04-15T12:32:03;13.35;;;10.73;;
38581;SDS011;24349;53.720;10.014;2023-04-15T12:37:06;14.00;;;9.65;;
38581;SDS011;24349;53.720;10.014;2023-04-15T12:39:35;12.55;;;10.00;;
38581;SDS011;24349;53.720;10.014;2023-04-15T12:42:03;12.18;;;9.88;;
38581;SDS011;24349;53.720;10.014;2023-04-15T12:44:29;14.93;;;10.70;;
38581;SDS011;24349;53.720;10.014;2023-04-15T12:46:55;11.73;;;10.05;;
38581;SDS011;24349;53.720;10.014;2023-04-15T12:49:21;12.48;;;11.00;;
38581;SDS011;24349;53.720;10.014;2023-04-15T12:51:48;13.07;;;10.10;;
38581;SDS011;24349;53.720;10.014;2023-04-15T12:54:19;13.50;;;10.75;;
38581;SDS011;24349;53.720;10.014;2023-04-15T12:56:46;13.02;;;10.48;;
38581;SDS011;24349;53.720;10.014;2023-04-15T12:59:15;13.23;;;10.20;;
38581;SDS011;24349;53.720;10.014;2023-04-15T13:01:44;13.98;;;10.23;;
38581;SDS011;24349;53.720;10.014;2023-04-15T13:04:11;10.88;;;9.23;;
38581;SDS011;24349;53.720;10.014;2023-04-15T13:06:36;13.00;;;10.00;;
38581;SDS011;24349;53.720;10.014;2023-04-15T13:09:02;12.95;;;10.65;;
38581;SDS011;24349;53.720;10.014;2023-04-15T13:11:29;11.23;;;8.55;;
38581;SDS011;24349;53.720;10.014;2023-04-15T13:13:55;11.05;;;9.60;;
38581;SDS011;24349;53.720;10.014;2023-04-15T13:16:22;11.48;;;8.95;;
38581;SDS011;24349;53.720;10.014;2023-04-15T13:18:48;11.57;;;9.23;;
38581;SDS011;24349;53.720;10.014;2023-04-15T13:21:14;10.40;;;9.30;;
38581;SDS011;24349;53.720;10.014;2023-04-15T13:23:41;10.00;;;8.10;;
38581;SDS011;24349;53.720;10.014;2023-04-15T13:26:06;10.52;;;8.20;;
38581;SDS011;24349;53.720;10.014;2023-04-15T13:28:32;10.23;;;8.25;;
38581;SDS011;24349;53.720;10.014;2023-04-15T13:30:58;10.23;;;7.97;;
38581;SDS011;24349;53.720;10.014;2023-04-15T13:33:24;10.38;;;8.63;;
38581;SDS011;24349;53.720;10.014;2023-04-15T13:35:51;10.23;;;8.43;;
38581;SDS011;24349;53.720;10.014;2023-04-15T13:38:16;11.80;;;9.15;;
38581;SDS011;24349;53.720;10.014;2023-04-15T13:40:42;13.65;;;10.30;;
38581;SDS011;24349;53.720;10.014;2023-04-15T13:43:08;10.45;;;8.32;;
38581;SDS011;24349;53.720;10.014;2023-04-15T13:45:34;12.95;;;9.48;;
38581;SDS011;24349;53.720;10.014;2023-04-15T13:47:59;10.52;;;8.80;;
38581;SDS011;24349;53.720;10.014;2023-04-15T13:50:26;12.88;;;9.80;;
38581;SDS011;24349;53.720;10.014;2023-04-15T13:52:51;12.40;;;10.57;;
38581;SDS011;24349;53.720;10.014;2023-04-15T13:55:17;12.27;;;10.68;;
38581;SDS011;24349;53.720;10.014;2023-04-15T13:57:43;12.43;;;10.23;;
38581;SDS011;24349;53.720;10.014;2023-04-15T14:00:08;12.43;;;9.65;;
38581;SDS011;24349;53.720;10.014;2023-04-15T14:02:35;13.00;;;9.05;;
38581;SDS011;24349;53.720;10.014;2023-04-15T14:05:00;12.57;;;9.90;;
38581;SDS011;24349;53.720;10.014;2023-04-15T14:07:27;12.07;;;9.65;;
38581;SDS011;24349;53.720;10.014;2023-04-15T14:09:54;12.60;;;10.00;;
38581;SDS011;24349;53.720;10.014;2023-04-15T14:12:20;12.93;;;10.10;;
38581;SDS011;24349;53.720;10.014;2023-04-15T14:14:46;11.93;;;9.60;;
38581;SDS011;24349;53.720;10.014;2023-04-15T14:17:11;11.60;;;9.98;;
38581;SDS011;24349;53.720;10.014;2023-04-15T14:19:37;12.23;;;10.25;;
38581;SDS011;24349;53.720;10.014;2023-04-15T14:22:03;10.52;;;9.27;;
38581;SDS011;24349;53.720;10.014;2023-04-15T14:24:29;12.57;;;9.45;;
38581;SDS011;24349;53.720;10.014;2023-04-15T14:26:55;12.38;;;10.40;;
38581;SDS011;24349;53.720;10.014;2023-04-15T14:29:21;11.13;;;9.40;;
38581;SDS011;24349;53.720;10.014;2023-04-15T14:31:47;13.55;;;10.30;;
38581;SDS011;24349;53.720;10.014;2023-04-15T14:34:14;11.98;;;9.35;;
38581;SDS011;24349;53.720;10.014;2023-04-15T14:36:40;11.90;;;10.30;;